aviador You're here:

CYOA Decoded Metar

EKATI (PWS) in NT, CANADA
Report Time2018-02-22 14:00:00
UTC Time2018-02-22 15:01:40
Flight Rules vfr VFR
Wind360° at 06 kt
W.Decomp.*RWY 02: 4.9 kt HW 3.5 kt LCW
Visibility9999 m
Phenomena:N/A
Clouds:N/A
Expected CloudBase > 1,600 ft AGL from Temp-Dew spread
CeilingNone
Temp-35°C (ISA -47)
Dew Point-39°C (67% RH)
AAT-41.1°C
QNH1008 hPa
Density Alt-4,488 ft
Elevation1,539 ft
Report Wrong Elevation
Raw Report
CYOA 221400Z 36006KT 15SM SKC M35/M39 A2978=

Extra information for CYOA:More info

Metar Taf Metar & Taf Last 4 Metars F.Rules Stats Wind Profile Meteogram Temp Stats Airport Information Weather charts Add Link Nearby VenuesMetar ALERT Operation Metar Decoded Social comments